Terminal Aerodrome Forecast
Issued by NWS

Home | Current Version | Previous Version | Text Only | Print | Product List | Glossary On
Versions: 1 2 3 4 5 6 7 8 9 10 11 12 13 14
000
FTUS45 KRIW 311700
TAFCPR
TAF
KCPR 311729Z 3118/0118 20007KT P6SM FEW130 BKN200
     FM311900 20018G28KT P6SM SCT130 BKN200
     FM010100 21011KT P6SM SCT130 BKN200
     FM010900 21014KT P6SM BKN150
     FM011600 22018G26KT P6SM SCT080 BKN150=

USA.gov is the U.S. government's official web portal to all federal, state and local government web resources and services.